This is the latest recevied weather packets stored in our database for station/object DJ9MA-10. If no packets are shown the sender has not sent any weather packets the latest 10 day(s).
| Time | Temp. | Humidity | Pressure | Rain* | Wind** | Luminosity | Snow |
|---|---|---|---|---|---|---|---|
| 1777249710 | 12.22° C | 100% | 969.2 hPa | - | - | - | - |
| 1777248810 | 12.22° C | 96% | 969.2 hPa | - | - | - | - |
| 1777247910 | 12.22° C | 93% | 969.4 hPa | - | - | - | - |
| 1777247010 | 12.78° C | 86% | 969.5 hPa | - | - | - | - |
| 1777246110 | 13.33° C | 82% | 969.6 hPa | - | - | - | - |
| 1777245210 | 13.33° C | 81% | 969.5 hPa | - | - | - | - |
| 1777244310 | 13.89° C | 79% | 969.6 hPa | - | - | - | - |
| 1777243410 | 13.89° C | 72% | 969.7 hPa | - | - | - | - |
| 1777242510 | 14.44° C | 68% | 969.7 hPa | - | - | - | - |
| 1777241610 | 14.44° C | 65% | 969.6 hPa | - | - | - | - |
| 1777240710 | 15° C | 63% | 969.5 hPa | - | - | - | - |
| 1777239810 | 15° C | 60% | 969.4 hPa | - | - | - | - |
| 1777238910 | 15.56° C | 58% | 969.5 hPa | - | - | - | - |
| 1777238010 | 15.56° C | 57% | 969.5 hPa | - | - | - | - |
| 1777237110 | 16.11° C | 56% | 969.5 hPa | - | - | - | - |
| 1777236210 | 16.11° C | 56% | 969.4 hPa | - | - | - | - |
| 1777235310 | 16.67° C | 55% | 969.4 hPa | - | - | - | - |
| 1777234409 | 17.22° C | 53% | 969.4 hPa | - | - | - | - |
| 1777233509 | 17.78° C | 52% | 969.3 hPa | - | - | - | - |
| 1777232609 | 18.33° C | 51% | 969.2 hPa | - | - | - | - |
| 1777231709 | 18.33° C | 52% | 969.2 hPa | - | - | - | - |
| 1777230809 | 18.89° C | 51% | 969 hPa | - | - | - | - |
| 1777229909 | 19.44° C | 52% | 969 hPa | - | - | - | - |
| 1777229009 | 17.22° C | 56% | 968.7 hPa | - | - | - | - |
| 1777228109 | 18.33° C | 55% | 968.6 hPa | - | - | - | - |
* Rain since midnight (hover to see other rain measurements)
** Current wind speed in m/s (hover to see current wind gust speed)